createdAt,value
2022-07-30T00:00:10.275Z,1036.54
2022-07-30T00:00:35.814Z,1036.54
2022-07-30T00:00:58.335Z,1036.54
2022-07-30T00:01:29.279Z,1036.54
2022-07-30T00:02:01.913Z,1036.23
2022-07-30T00:02:33.264Z,1036.23
2022-07-30T00:03:07.201Z,1036.44
2022-07-30T00:03:38.139Z,1036.44
2022-07-30T00:04:09.164Z,1036.33
2022-07-30T00:04:36.762Z,1036.54
2022-07-30T00:04:57.885Z,1036.54
2022-07-30T00:05:29.550Z,1036.54
2022-07-30T00:06:01.923Z,1036.44
2022-07-30T00:06:33.127Z,1036.44
2022-07-30T00:07:05.293Z,1036.33
2022-07-30T00:07:38.044Z,1036.33
2022-07-30T00:08:09.913Z,1036.33
2022-07-30T00:08:36.021Z,1036.54
2022-07-30T00:08:58.016Z,1036.54
2022-07-30T00:09:29.100Z,1036.54
2022-07-30T00:10:01.727Z,1036.33
2022-07-30T00:10:17.916Z,1036.33
2022-07-30T00:10:39.175Z,1036.44
2022-07-30T00:11:06.755Z,1036.44
2022-07-30T00:11:38.883Z,1036.44
2022-07-30T00:12:09.158Z,1036.44
2022-07-30T00:12:38.909Z,1036.44
2022-07-30T00:12:58.526Z,1036.44
2022-07-30T00:13:29.173Z,1036.44
2022-07-30T00:14:01.981Z,1036.33
2022-07-30T00:14:33.449Z,1036.33
2022-07-30T00:15:06.118Z,1036.33
2022-07-30T00:15:38.061Z,1036.33
2022-07-30T00:16:09.303Z,1036.54
2022-07-30T00:16:35.832Z,1036.33
2022-07-30T00:16:58.133Z,1036.33
2022-07-30T00:17:29.997Z,1036.33
2022-07-30T00:18:01.126Z,1036.23
2022-07-30T00:18:17.854Z,1036.23
2022-07-30T00:18:38.852Z,1036.44
2022-07-30T00:19:05.192Z,1036.44
2022-07-30T00:19:37.886Z,1036.44
2022-07-30T00:20:09.555Z,1036.44
2022-07-30T00:20:36.104Z,1036.33
2022-07-30T00:20:58.311Z,1036.33
2022-07-30T00:21:38.844Z,1036.33
2022-07-30T00:22:01.195Z,1036.44
2022-07-30T00:22:18.998Z,1036.44
2022-07-30T00:22:38.990Z,1036.23
2022-07-30T00:23:06.117Z,1036.23
2022-07-30T00:23:38.098Z,1036.23
2022-07-30T00:24:10.357Z,1036.44
2022-07-30T00:24:35.983Z,1036.33
2022-07-30T00:24:57.862Z,1036.33
2022-07-30T00:25:29.722Z,1036.33
2022-07-30T00:26:01.192Z,1036.23
2022-07-30T00:26:19.089Z,1036.23
2022-07-30T00:26:38.818Z,1036.33
2022-07-30T00:27:05.157Z,1036.33
2022-07-30T00:27:37.810Z,1036.33
2022-07-30T00:28:10.178Z,1036.44
2022-07-30T00:28:35.833Z,1036.44
2022-07-30T00:28:58.052Z,1036.44
2022-07-30T00:29:29.352Z,1036.44
2022-07-30T00:30:02.900Z,1036.54
2022-07-30T00:30:18.097Z,1036.54
2022-07-30T00:30:39.462Z,1036.54
2022-07-30T00:31:05.272Z,1036.54
2022-07-30T00:31:37.952Z,1036.54
2022-07-30T00:32:09.279Z,1036.23
2022-07-30T00:32:36.953Z,1036.44
2022-07-30T00:32:57.839Z,1036.44
2022-07-30T00:33:29.161Z,1036.44
2022-07-30T00:34:01.396Z,1036.44
2022-07-30T00:34:33.096Z,1036.44
2022-07-30T00:35:05.937Z,1036.44
2022-07-30T00:35:38.680Z,1036.44
2022-07-30T00:36:09.305Z,1036.33
2022-07-30T00:36:37.563Z,1036.64
2022-07-30T00:36:58.915Z,1036.64
2022-07-30T00:37:29.315Z,1036.64
2022-07-30T00:38:01.153Z,1036.44
2022-07-30T00:38:18.041Z,1036.44
2022-07-30T00:38:38.844Z,1036.64
2022-07-30T00:39:06.037Z,1036.64
2022-07-30T00:39:37.864Z,1036.64
2022-07-30T00:40:09.941Z,1036.44
2022-07-30T00:40:37.582Z,1036.44
2022-07-30T00:40:59.546Z,1036.44
2022-07-30T00:41:29.508Z,1036.44
2022-07-30T00:42:01.106Z,1036.64
2022-07-30T00:42:19.092Z,1036.64
2022-07-30T00:42:38.956Z,1036.44
2022-07-30T00:43:05.130Z,1036.44
2022-07-30T00:43:38.183Z,1036.44
2022-07-30T00:44:09.084Z,1036.54
2022-07-30T00:44:37.232Z,1036.44
2022-07-30T00:44:57.832Z,1036.44
2022-07-30T00:45:30.222Z,1036.44
2022-07-30T00:46:01.332Z,1036.54
2022-07-30T00:46:18.041Z,1036.54
2022-07-30T00:46:38.922Z,1036.33
2022-07-30T00:47:05.230Z,1036.33
2022-07-30T00:47:38.014Z,1036.33
2022-07-30T00:48:09.132Z,1036.64
2022-07-30T00:48:36.781Z,1036.44
2022-07-30T00:48:58.942Z,1036.44
2022-07-30T00:49:29.282Z,1036.44
2022-07-30T00:50:02.135Z,1036.44
2022-07-30T00:50:18.635Z,1036.44
2022-07-30T00:50:39.412Z,1036.54
2022-07-30T00:51:05.294Z,1036.54
2022-07-30T00:51:37.815Z,1036.54
2022-07-30T00:52:09.240Z,1036.44
2022-07-30T00:52:35.839Z,1036.54
2022-07-30T00:52:58.019Z,1036.54
2022-07-30T00:53:29.257Z,1036.54
2022-07-30T00:54:01.245Z,1036.44
2022-07-30T00:54:18.147Z,1036.44
2022-07-30T00:54:39.647Z,1036.33
2022-07-30T00:55:05.802Z,1036.33
2022-07-30T00:55:37.881Z,1036.33
2022-07-30T00:56:09.486Z,1036.54
2022-07-30T00:56:36.994Z,1036.64
2022-07-30T00:56:58.451Z,1036.64
2022-07-30T00:57:29.365Z,1036.64
2022-07-30T00:58:01.958Z,1036.44
2022-07-30T00:58:33.230Z,1036.44
2022-07-30T00:59:05.277Z,1036.33
2022-07-30T00:59:37.858Z,1036.33
2022-07-30T01:00:10.941Z,1036.33
2022-07-30T01:00:35.932Z,1036.64
2022-07-30T01:00:58.456Z,1036.64
2022-07-30T01:01:29.241Z,1036.64
2022-07-30T01:02:01.520Z,1036.33
2022-07-30T01:02:18.134Z,1036.33
2022-07-30T01:02:38.978Z,1036.44
2022-07-30T01:03:05.047Z,1036.44
2022-07-30T01:03:38.795Z,1036.44
2022-07-30T01:04:09.126Z,1036.23
2022-07-30T01:04:35.869Z,1036.44
2022-07-30T01:04:58.888Z,1036.44
2022-07-30T01:05:29.735Z,1036.44
2022-07-30T01:06:02.167Z,1036.54
2022-07-30T01:06:33.316Z,1036.54
2022-07-30T01:07:05.135Z,1036.44
2022-07-30T01:07:38.079Z,1036.44
2022-07-30T01:08:10.466Z,1036.44
2022-07-30T01:08:36.087Z,1036.44
2022-07-30T01:08:58.954Z,1036.44
2022-07-30T01:09:29.315Z,1036.44
2022-07-30T01:10:01.925Z,1036.64
2022-07-30T01:10:17.976Z,1036.64
2022-07-30T01:10:39.345Z,1036.54
2022-07-30T01:11:05.414Z,1036.54
2022-07-30T01:11:37.891Z,1036.54
2022-07-30T01:12:09.416Z,1036.44
2022-07-30T01:12:35.946Z,1036.64
2022-07-30T01:12:58.075Z,1036.64
2022-07-30T01:13:29.409Z,1036.64
2022-07-30T01:14:01.242Z,1036.44
2022-07-30T01:14:18.009Z,1036.44
2022-07-30T01:14:39.035Z,1036.64
2022-07-30T01:15:06.419Z,1036.64
2022-07-30T01:15:38.055Z,1036.64
2022-07-30T01:16:09.161Z,1036.74
2022-07-30T01:16:35.931Z,1036.44
2022-07-30T01:17:00.143Z,1036.44
2022-07-30T01:17:29.233Z,1036.44
2022-07-30T01:18:01.287Z,1036.74
2022-07-30T01:18:17.985Z,1036.74
2022-07-30T01:18:39.357Z,1036.64
2022-07-30T01:19:05.290Z,1036.64
2022-07-30T01:19:38.898Z,1036.64
2022-07-30T01:20:09.606Z,1036.54
2022-07-30T01:20:36.188Z,1036.64
2022-07-30T01:20:58.416Z,1036.64
2022-07-30T01:21:29.276Z,1036.64
2022-07-30T01:22:01.107Z,1036.54
2022-07-30T01:22:18.095Z,1036.54
2022-07-30T01:22:38.901Z,1036.74
2022-07-30T01:23:07.479Z,1036.74
2022-07-30T01:23:38.063Z,1036.74
2022-07-30T01:24:09.120Z,1036.44
2022-07-30T01:24:35.884Z,1036.54
2022-07-30T01:24:58.210Z,1036.54
2022-07-30T01:25:30.845Z,1036.54
2022-07-30T01:26:01.121Z,1036.44
2022-07-30T01:26:17.960Z,1036.44
2022-07-30T01:26:39.106Z,1036.54
2022-07-30T01:27:05.028Z,1036.54
2022-07-30T01:27:37.965Z,1036.54
2022-07-30T01:28:09.326Z,1036.44
2022-07-30T01:28:35.789Z,1036.54
2022-07-30T01:28:58.337Z,1036.54
2022-07-30T01:29:29.091Z,1036.54
2022-07-30T01:30:03.895Z,1036.64
2022-07-30T01:30:34.821Z,1036.64
2022-07-30T01:31:05.058Z,1036.64
2022-07-30T01:31:38.941Z,1036.64
2022-07-30T01:32:09.313Z,1036.64
2022-07-30T01:32:35.874Z,1036.64
2022-07-30T01:32:58.537Z,1036.64
2022-07-30T01:33:29.050Z,1036.64
2022-07-30T01:34:01.130Z,1036.74
2022-07-30T01:34:18.903Z,1036.74
2022-07-30T01:34:38.995Z,1036.74
2022-07-30T01:35:05.915Z,1036.74
2022-07-30T01:35:37.886Z,1036.74
2022-07-30T01:36:09.185Z,1036.54
2022-07-30T01:36:37.558Z,1036.64
2022-07-30T01:36:58.791Z,1036.64
2022-07-30T01:37:30.326Z,1036.64
2022-07-30T01:38:01.439Z,1036.64
2022-07-30T01:38:18.909Z,1036.64
2022-07-30T01:38:39.141Z,1036.64
2022-07-30T01:39:05.188Z,1036.64
2022-07-30T01:39:37.887Z,1036.64
2022-07-30T01:40:09.673Z,1037.01
2022-07-30T01:40:36.003Z,1036.81
2022-07-30T01:40:59.452Z,1036.81
2022-07-30T01:41:29.226Z,1036.81
2022-07-30T01:42:02.111Z,1036.74
2022-07-30T01:42:33.112Z,1036.74
2022-07-30T01:43:05.085Z,1036.74
2022-07-30T01:43:38.448Z,1036.74
2022-07-30T01:44:09.140Z,1036.74
2022-07-30T01:44:37.198Z,1036.74
2022-07-30T01:44:58.010Z,1036.74
2022-07-30T01:45:30.365Z,1036.74
2022-07-30T01:46:02.061Z,1036.64
2022-07-30T01:46:33.030Z,1036.64
2022-07-30T01:47:05.699Z,1036.64
2022-07-30T01:47:37.882Z,1036.64
2022-07-30T01:48:09.164Z,1036.74
2022-07-30T01:48:36.109Z,1036.74
2022-07-30T01:48:58.110Z,1036.74
2022-07-30T01:49:29.021Z,1036.74
2022-07-30T01:50:04.187Z,1036.81
2022-07-30T01:50:33.052Z,1036.81
2022-07-30T01:51:05.177Z,1036.74
2022-07-30T01:51:37.934Z,1036.74
2022-07-30T01:52:09.168Z,1036.64
2022-07-30T01:52:35.867Z,1036.81
2022-07-30T01:52:57.894Z,1036.81
2022-07-30T01:53:29.154Z,1036.81
2022-07-30T01:54:02.111Z,1036.64
2022-07-30T01:54:33.081Z,1036.64
2022-07-30T01:55:05.893Z,1036.74
2022-07-30T01:55:38.133Z,1036.74
2022-07-30T01:56:10.657Z,1036.91
2022-07-30T01:56:35.980Z,1036.81
2022-07-30T01:56:59.216Z,1036.81
2022-07-30T01:57:30.137Z,1036.81
2022-07-30T01:58:01.357Z,1036.81
2022-07-30T01:58:18.330Z,1036.81
2022-07-30T01:58:38.942Z,1036.74
2022-07-30T01:59:05.056Z,1036.74
2022-07-30T01:59:37.850Z,1036.74
2022-07-30T02:00:10.362Z,1036.91
2022-07-30T02:00:36.910Z,1036.81
2022-07-30T02:00:58.540Z,1036.81
2022-07-30T02:01:29.080Z,1036.81
2022-07-30T02:02:01.131Z,1036.81
2022-07-30T02:02:18.308Z,1036.81
2022-07-30T02:02:38.995Z,1036.81
2022-07-30T02:03:05.080Z,1036.81
2022-07-30T02:03:38.838Z,1036.81
2022-07-30T02:04:09.115Z,1037.01
2022-07-30T02:04:37.485Z,1036.81
2022-07-30T02:04:58.032Z,1036.81
2022-07-30T02:05:29.534Z,1036.81
2022-07-30T02:06:01.228Z,1037.01
2022-07-30T02:06:17.931Z,1037.01
2022-07-30T02:06:38.948Z,1036.91
2022-07-30T02:07:05.078Z,1036.91
2022-07-30T02:07:38.027Z,1036.91
2022-07-30T02:08:09.160Z,1036.81
2022-07-30T02:08:35.821Z,1036.91
2022-07-30T02:08:57.969Z,1036.91
2022-07-30T02:09:29.142Z,1036.91
2022-07-30T02:10:02.001Z,1036.64
2022-07-30T02:10:18.135Z,1036.64
2022-07-30T02:10:38.914Z,1036.74
2022-07-30T02:11:05.254Z,1036.74
2022-07-30T02:11:37.867Z,1036.74
2022-07-30T02:12:09.233Z,1036.64
2022-07-30T02:12:35.870Z,1036.81
2022-07-30T02:12:57.985Z,1036.81
2022-07-30T02:13:29.193Z,1036.81
2022-07-30T02:14:01.259Z,1036.74
2022-07-30T02:14:19.053Z,1036.74
2022-07-30T02:14:38.974Z,1036.81
2022-07-30T02:15:06.378Z,1036.81
2022-07-30T02:15:38.014Z,1036.81
2022-07-30T02:16:09.272Z,1036.44
2022-07-30T02:16:36.799Z,1036.91
2022-07-30T02:16:59.176Z,1036.91
2022-07-30T02:17:30.483Z,1036.91
2022-07-30T02:18:01.248Z,1037.01
2022-07-30T02:18:18.058Z,1037.01
2022-07-30T02:18:39.633Z,1036.81
2022-07-30T02:19:06.251Z,1036.81
2022-07-30T02:19:38.076Z,1036.81
2022-07-30T02:20:10.279Z,1036.74
2022-07-30T02:20:36.016Z,1036.81
2022-07-30T02:20:59.726Z,1036.81
2022-07-30T02:21:36.472Z,1036.81
2022-07-30T02:22:01.273Z,1036.74
2022-07-30T02:22:18.247Z,1036.74
2022-07-30T02:22:39.465Z,1036.74
2022-07-30T02:23:05.268Z,1036.74
2022-07-30T02:23:37.962Z,1036.74
2022-07-30T02:24:09.169Z,1036.74
2022-07-30T02:24:36.718Z,1036.81
2022-07-30T02:24:58.221Z,1036.81
2022-07-30T02:25:29.668Z,1036.81
2022-07-30T02:26:01.286Z,1037.01
2022-07-30T02:26:17.999Z,1037.01
2022-07-30T02:26:38.572Z,1036.81
2022-07-30T02:27:05.137Z,1036.81
2022-07-30T02:27:38.932Z,1036.81
2022-07-30T02:28:10.064Z,1036.64
2022-07-30T02:28:36.681Z,1036.74
2022-07-30T02:28:57.962Z,1036.74
2022-07-30T02:29:29.138Z,1036.74
2022-07-30T02:30:02.804Z,1036.81
2022-07-30T02:30:18.347Z,1036.81
2022-07-30T02:30:38.968Z,1037.11
2022-07-30T02:31:17.020Z,1037.11
2022-07-30T02:31:45.028Z,1036.64
2022-07-30T02:32:15.476Z,1036.64
2022-07-30T02:32:38.876Z,1036.81
2022-07-30T02:32:58.970Z,1036.81
2022-07-30T02:33:29.182Z,1036.81
2022-07-30T02:34:01.125Z,1036.64
2022-07-30T02:34:18.108Z,1036.64
2022-07-30T02:34:39.103Z,1036.74
2022-07-30T02:35:05.889Z,1036.74
2022-07-30T02:35:38.027Z,1036.74
2022-07-30T02:36:11.167Z,1036.81
2022-07-30T02:36:35.838Z,1036.74
2022-07-30T02:36:59.254Z,1036.74
2022-07-30T02:37:39.276Z,1036.74
2022-07-30T02:38:01.075Z,1036.81
2022-07-30T02:38:18.212Z,1036.81
2022-07-30T02:38:38.451Z,1036.74
2022-07-30T02:39:19.720Z,1036.74
2022-07-30T02:39:38.153Z,1036.74
2022-07-30T02:40:10.805Z,1036.81
2022-07-30T02:40:36.357Z,1036.81
2022-07-30T02:40:58.784Z,1036.81
2022-07-30T02:41:29.234Z,1036.81
2022-07-30T02:42:01.193Z,1036.64
2022-07-30T02:42:18.686Z,1036.64
2022-07-30T02:42:38.917Z,1036.64
2022-07-30T02:43:05.247Z,1036.64
2022-07-30T02:43:37.798Z,1036.64
2022-07-30T02:44:09.036Z,1036.64
2022-07-30T02:44:35.840Z,1036.74
2022-07-30T02:44:59.558Z,1036.74
2022-07-30T02:45:29.825Z,1036.74
2022-07-30T02:46:01.968Z,1036.74
2022-07-30T02:46:33.110Z,1036.74
2022-07-30T02:47:06.288Z,1036.64
2022-07-30T02:47:38.056Z,1036.64
2022-07-30T02:48:09.837Z,1036.64
2022-07-30T02:48:36.662Z,1036.74
2022-07-30T02:48:57.985Z,1036.74
2022-07-30T02:49:29.003Z,1036.74
2022-07-30T02:50:01.658Z,1036.64
2022-07-30T02:50:19.530Z,1036.64
2022-07-30T02:50:38.709Z,1036.81
2022-07-30T02:51:04.953Z,1036.81
2022-07-30T02:51:37.938Z,1036.81
2022-07-30T02:52:09.034Z,1036.64
2022-07-30T02:52:35.859Z,1036.74
2022-07-30T02:52:57.982Z,1036.74
2022-07-30T02:53:30.030Z,1036.74
2022-07-30T02:54:01.246Z,1036.74
2022-07-30T02:54:19.310Z,1036.74
2022-07-30T02:54:39.079Z,1036.64
2022-07-30T02:55:05.846Z,1036.64
2022-07-30T02:55:37.837Z,1036.64
2022-07-30T02:56:09.070Z,1036.64
2022-07-30T02:56:36.662Z,1036.74
2022-07-30T02:56:58.650Z,1036.74
2022-07-30T02:57:29.011Z,1036.74
2022-07-30T02:58:00.962Z,1036.64
2022-07-30T02:58:18.028Z,1036.64
2022-07-30T02:58:39.103Z,1036.64
2022-07-30T02:59:04.954Z,1036.64
2022-07-30T02:59:37.830Z,1036.64
2022-07-30T03:00:10.169Z,1036.54
2022-07-30T03:00:37.603Z,1036.44
2022-07-30T03:00:59.014Z,1036.44
2022-07-30T03:01:28.968Z,1036.44
2022-07-30T03:02:01.102Z,1036.81
2022-07-30T03:02:18.193Z,1036.81
2022-07-30T03:02:38.923Z,1036.44
2022-07-30T03:03:04.905Z,1036.44
2022-07-30T03:03:37.904Z,1036.44
2022-07-30T03:04:09.720Z,1036.64
2022-07-30T03:04:35.887Z,1036.74
2022-07-30T03:04:57.956Z,1036.74
2022-07-30T03:05:29.354Z,1036.74
2022-07-30T03:06:01.255Z,1036.44
2022-07-30T03:06:17.966Z,1036.44
2022-07-30T03:06:38.439Z,1036.64
2022-07-30T03:07:08.215Z,1036.64
2022-07-30T03:07:37.901Z,1036.64
2022-07-30T03:08:08.969Z,1036.54
2022-07-30T03:08:35.834Z,1036.54
2022-07-30T03:08:58.164Z,1036.54
2022-07-30T03:09:29.025Z,1036.54
2022-07-30T03:10:01.632Z,1036.64
2022-07-30T03:10:17.906Z,1036.64
2022-07-30T03:10:38.773Z,1036.64
2022-07-30T03:11:04.950Z,1036.64
2022-07-30T03:11:37.924Z,1036.64
2022-07-30T03:12:09.904Z,1036.64
2022-07-30T03:12:35.909Z,1036.64
2022-07-30T03:12:58.015Z,1036.64
2022-07-30T03:13:28.984Z,1036.64
2022-07-30T03:14:01.125Z,1036.64
2022-07-30T03:14:17.978Z,1036.64
2022-07-30T03:14:46.055Z,1036.64
2022-07-30T03:15:06.492Z,1036.64
2022-07-30T03:15:39.131Z,1036.64
2022-07-30T03:16:09.158Z,1036.44
2022-07-30T03:16:36.516Z,1036.54
2022-07-30T03:16:58.256Z,1036.54
2022-07-30T03:17:29.047Z,1036.54
2022-07-30T03:18:01.101Z,1036.64
2022-07-30T03:18:17.954Z,1036.64
2022-07-30T03:18:38.952Z,1036.64
2022-07-30T03:19:05.295Z,1036.64
2022-07-30T03:19:38.002Z,1036.64
2022-07-30T03:20:09.390Z,1036.64
2022-07-30T03:20:36.091Z,1036.54
2022-07-30T03:20:58.269Z,1036.54
2022-07-30T03:21:29.899Z,1036.54
2022-07-30T03:22:00.968Z,1036.54
2022-07-30T03:22:18.050Z,1036.54
2022-07-30T03:22:38.986Z,1036.44
2022-07-30T03:23:04.955Z,1036.44
2022-07-30T03:23:37.900Z,1036.44
2022-07-30T03:24:09.117Z,1036.54
2022-07-30T03:24:36.665Z,1036.33
2022-07-30T03:25:06.258Z,1036.33
2022-07-30T03:25:28.991Z,1036.33
2022-07-30T03:26:01.012Z,1036.64
2022-07-30T03:26:17.845Z,1036.64
2022-07-30T03:26:39.415Z,1036.81
2022-07-30T03:27:05.770Z,1036.81
2022-07-30T03:27:37.860Z,1036.81
2022-07-30T03:28:09.077Z,1036.64
2022-07-30T03:28:36.990Z,1036.64
2022-07-30T03:28:58.928Z,1036.64
2022-07-30T03:29:29.797Z,1036.64
2022-07-30T03:30:02.449Z,1036.74
2022-07-30T03:30:17.912Z,1036.74
2022-07-30T03:30:38.924Z,1036.54
2022-07-30T03:31:05.041Z,1036.54
2022-07-30T03:31:38.243Z,1036.54
2022-07-30T03:32:09.954Z,1036.64
2022-07-30T03:32:35.826Z,1036.33
2022-07-30T03:32:58.009Z,1036.33
2022-07-30T03:33:38.010Z,1036.33
2022-07-30T03:34:00.930Z,1036.64
2022-07-30T03:34:17.902Z,1036.64
2022-07-30T03:34:38.420Z,1036.64
2022-07-30T03:35:06.608Z,1036.64
2022-07-30T03:35:38.282Z,1036.64
2022-07-30T03:36:09.165Z,1036.74
2022-07-30T03:36:36.020Z,1036.54
2022-07-30T03:36:58.622Z,1036.54
2022-07-30T03:37:29.095Z,1036.54
2022-07-30T03:38:00.927Z,1036.54
2022-07-30T03:38:19.078Z,1036.54
2022-07-30T03:38:39.256Z,1036.74
2022-07-30T03:39:04.946Z,1036.74
2022-07-30T03:39:38.011Z,1036.74
2022-07-30T03:40:11.451Z,1036.54
2022-07-30T03:40:35.755Z,1036.44
2022-07-30T03:40:58.602Z,1036.44
2022-07-30T03:41:29.169Z,1036.44
2022-07-30T03:42:01.013Z,1036.81
2022-07-30T03:42:18.102Z,1036.81
2022-07-30T03:42:38.379Z,1036.81
2022-07-30T03:43:04.971Z,1036.81
2022-07-30T03:43:38.676Z,1036.81
2022-07-30T03:44:09.024Z,1036.64
2022-07-30T03:44:35.852Z,1036.74
2022-07-30T03:44:59.032Z,1036.74
2022-07-30T03:45:30.011Z,1036.74
2022-07-30T03:46:01.086Z,1036.74
2022-07-30T03:46:18.024Z,1036.74
2022-07-30T03:46:38.636Z,1036.74
2022-07-30T03:47:05.479Z,1036.74
2022-07-30T03:47:37.791Z,1036.74
2022-07-30T03:48:09.127Z,1036.64
2022-07-30T03:48:36.052Z,1036.74
2022-07-30T03:48:58.625Z,1036.74
2022-07-30T03:49:29.169Z,1036.74
2022-07-30T03:50:03.168Z,1036.54
2022-07-30T03:50:33.337Z,1036.54
2022-07-30T03:51:05.001Z,1036.74
2022-07-30T03:51:37.853Z,1036.74
2022-07-30T03:52:10.131Z,1036.64
2022-07-30T03:52:35.911Z,1036.64
2022-07-30T03:52:58.234Z,1036.64
2022-07-30T03:53:29.117Z,1036.64
2022-07-30T03:54:01.008Z,1036.81
2022-07-30T03:54:17.987Z,1036.81
2022-07-30T03:54:38.329Z,1036.64
2022-07-30T03:55:07.192Z,1036.64
2022-07-30T03:55:37.795Z,1036.64
2022-07-30T03:56:11.749Z,1036.74
2022-07-30T03:56:35.889Z,1036.64
2022-07-30T03:56:58.383Z,1036.64
2022-07-30T03:57:29.335Z,1036.64
2022-07-30T03:58:01.008Z,1036.74
2022-07-30T03:58:18.033Z,1036.74
2022-07-30T03:58:38.442Z,1036.64
2022-07-30T03:59:04.969Z,1036.64
2022-07-30T03:59:37.984Z,1036.64
2022-07-30T04:00:10.866Z,1036.54
2022-07-30T04:00:36.822Z,1036.91
2022-07-30T04:00:58.830Z,1036.91
2022-07-30T04:01:29.496Z,1036.91
2022-07-30T04:02:07.339Z,1036.64
2022-07-30T04:02:17.972Z,1036.64
2022-07-30T04:02:38.435Z,1036.91
2022-07-30T04:03:05.003Z,1036.91
2022-07-30T04:03:38.658Z,1036.91
2022-07-30T04:04:10.264Z,1036.74
2022-07-30T04:04:35.795Z,1036.74
2022-07-30T04:04:58.422Z,1036.74
2022-07-30T04:05:37.753Z,1036.74
2022-07-30T04:06:01.853Z,1036.74
2022-07-30T04:06:35.017Z,1036.74
2022-07-30T04:07:04.995Z,1036.74
2022-07-30T04:07:44.800Z,1036.74
2022-07-30T04:08:09.151Z,1036.81
2022-07-30T04:08:35.887Z,1036.91
2022-07-30T04:08:58.050Z,1036.91
2022-07-30T04:09:30.192Z,1036.91
2022-07-30T04:10:01.730Z,1036.64
2022-07-30T04:10:17.958Z,1036.64
2022-07-30T04:10:38.708Z,1036.81
2022-07-30T04:11:04.926Z,1036.81
2022-07-30T04:11:41.447Z,1036.81
2022-07-30T04:12:09.985Z,1036.81
2022-07-30T04:12:35.956Z,1036.64
2022-07-30T04:12:58.084Z,1036.64
2022-07-30T04:13:29.039Z,1036.64
2022-07-30T04:14:01.108Z,1036.81
2022-07-30T04:14:18.032Z,1036.81
2022-07-30T04:14:38.424Z,1036.74
2022-07-30T04:15:06.068Z,1036.74
2022-07-30T04:17:02.479Z,1037.01
2022-07-30T04:17:29.884Z,1037.01
2022-07-30T04:18:01.033Z,1036.81
2022-07-30T04:18:18.300Z,1036.81
2022-07-30T04:18:38.582Z,1036.64
2022-07-30T04:19:05.258Z,1036.64
2022-07-30T04:19:38.167Z,1036.64
2022-07-30T04:20:09.620Z,1036.81
2022-07-30T04:20:36.857Z,1036.54
2022-07-30T04:20:58.520Z,1036.54
2022-07-30T04:21:29.427Z,1036.54
2022-07-30T04:22:01.443Z,1036.74
2022-07-30T04:22:18.318Z,1036.74
2022-07-30T04:22:38.694Z,1036.91
2022-07-30T04:23:05.250Z,1036.91
2022-07-30T04:24:02.943Z,1036.91
2022-07-30T04:24:09.213Z,1036.81
2022-07-30T04:24:36.124Z,1036.74
2022-07-30T04:24:58.193Z,1036.74
2022-07-30T04:25:30.619Z,1036.74
2022-07-30T04:26:01.194Z,1036.81
2022-07-30T04:26:18.192Z,1036.81
2022-07-30T04:26:39.153Z,1036.74
2022-07-30T04:27:05.259Z,1036.74
2022-07-30T04:27:38.304Z,1036.74
2022-07-30T04:28:09.313Z,1036.91
2022-07-30T04:28:36.529Z,1036.91
2022-07-30T04:28:58.231Z,1036.91
2022-07-30T04:29:29.174Z,1036.91
2022-07-30T04:30:02.705Z,1036.91
2022-07-30T04:30:18.280Z,1036.91
2022-07-30T04:30:39.204Z,1036.91
2022-07-30T04:31:05.258Z,1036.91
2022-07-30T04:31:40.545Z,1036.91
2022-07-30T04:32:11.241Z,1037.01
2022-07-30T04:32:36.102Z,1036.91
2022-07-30T04:32:58.606Z,1036.91
2022-07-30T04:33:29.987Z,1036.91
2022-07-30T04:34:04.850Z,1036.74
2022-07-30T04:34:34.897Z,1036.74
2022-07-30T04:35:06.233Z,1036.91
2022-07-30T04:35:51.642Z,1036.91
2022-07-30T04:36:11.156Z,1036.81
2022-07-30T04:36:36.389Z,1036.91
2022-07-30T04:36:58.724Z,1036.91
2022-07-30T04:37:29.358Z,1036.91
2022-07-30T04:38:01.906Z,1036.81
2022-07-30T04:38:33.326Z,1036.81
2022-07-30T04:39:06.114Z,1036.74
2022-07-30T04:39:40.426Z,1036.74
2022-07-30T04:40:11.246Z,1036.81
2022-07-30T04:40:39.393Z,1037.11
2022-07-30T04:41:00.322Z,1037.11
2022-07-30T04:41:29.746Z,1037.11
2022-07-30T04:42:02.716Z,1037.01
2022-07-30T04:42:20.245Z,1037.01
2022-07-30T04:42:38.799Z,1037.01
2022-07-30T04:43:05.646Z,1037.01
2022-07-30T04:43:38.812Z,1037.01
2022-07-30T04:44:10.233Z,1036.91
2022-07-30T04:44:37.362Z,1036.91
2022-07-30T04:44:58.212Z,1036.91
2022-07-30T04:45:31.089Z,1036.91
2022-07-30T04:46:01.350Z,1036.91
2022-07-30T04:46:20.434Z,1036.91
2022-07-30T04:46:39.652Z,1036.91
2022-07-30T04:47:05.510Z,1036.91
2022-07-30T04:47:38.161Z,1036.91
2022-07-30T04:48:10.667Z,1036.81
2022-07-30T04:48:37.514Z,1036.81
2022-07-30T04:48:58.433Z,1036.81
2022-07-30T04:49:29.289Z,1036.81
2022-07-30T04:50:03.674Z,1036.81
2022-07-30T04:50:33.443Z,1036.81
2022-07-30T04:51:06.170Z,1036.91
2022-07-30T04:51:39.313Z,1036.91
2022-07-30T04:52:11.634Z,1036.91
2022-07-30T04:52:36.418Z,1036.81
2022-07-30T04:52:58.267Z,1036.81
2022-07-30T04:53:29.473Z,1036.81
2022-07-30T04:54:01.229Z,1036.91
2022-07-30T04:54:18.721Z,1036.91
2022-07-30T04:54:38.904Z,1036.74
2022-07-30T04:55:11.322Z,1036.74
2022-07-30T04:55:38.396Z,1036.74
2022-07-30T04:56:09.262Z,1036.81
2022-07-30T04:56:37.744Z,1036.81
2022-07-30T04:56:58.153Z,1036.81
2022-07-30T04:57:29.549Z,1036.81
2022-07-30T04:58:02.037Z,1037.01
2022-07-30T04:58:18.497Z,1037.01
2022-07-30T04:58:39.402Z,1037.01
2022-07-30T04:59:06.028Z,1037.01
2022-07-30T04:59:39.312Z,1037.01
2022-07-30T05:00:12.001Z,1036.64
2022-07-30T05:00:40.940Z,1036.81
2022-07-30T05:00:59.086Z,1036.81
2022-07-30T05:01:34.047Z,1036.81
2022-07-30T05:02:01.582Z,1036.74
2022-07-30T05:02:18.562Z,1036.74
2022-07-30T05:02:39.071Z,1036.81
2022-07-30T05:03:05.528Z,1036.81
2022-07-30T05:03:38.357Z,1036.81
2022-07-30T05:04:09.190Z,1036.91
2022-07-30T05:04:36.413Z,1036.91
2022-07-30T05:04:58.391Z,1036.91
2022-07-30T05:05:30.311Z,1036.91
2022-07-30T05:06:01.247Z,1036.81
2022-07-30T05:06:18.366Z,1036.81
2022-07-30T05:06:39.232Z,1036.91
2022-07-30T05:07:05.572Z,1036.91
2022-07-30T05:07:38.307Z,1036.91
2022-07-30T05:08:10.417Z,1036.64
2022-07-30T05:08:37.452Z,1036.81
2022-07-30T05:08:59.682Z,1036.81
2022-07-30T05:09:29.569Z,1036.81
2022-07-30T05:10:03.313Z,1037.01
2022-07-30T05:10:18.321Z,1037.01
2022-07-30T05:10:39.467Z,1036.74
2022-07-30T05:11:07.016Z,1036.74
2022-07-30T05:11:38.395Z,1036.74
2022-07-30T05:12:10.415Z,1036.91
2022-07-30T05:12:37.262Z,1036.91
2022-07-30T05:13:01.187Z,1036.91
2022-07-30T05:13:34.401Z,1036.91
2022-07-30T05:14:01.380Z,1036.91
2022-07-30T05:14:18.500Z,1036.91
2022-07-30T05:14:38.916Z,1036.91
2022-07-30T05:15:06.660Z,1036.91
2022-07-30T05:15:38.275Z,1036.91
2022-07-30T05:16:10.354Z,1036.81
2022-07-30T05:16:37.005Z,1036.81
2022-07-30T05:17:00.662Z,1036.81
2022-07-30T05:17:29.359Z,1036.81
2022-07-30T05:18:01.237Z,1036.91
2022-07-30T05:18:19.549Z,1036.91
2022-07-30T05:18:39.669Z,1036.74
2022-07-30T05:19:07.512Z,1036.74
2022-07-30T05:19:40.657Z,1036.74
2022-07-30T05:20:11.160Z,1036.81
2022-07-30T05:20:38.090Z,1036.81
2022-07-30T05:21:00.282Z,1036.81
2022-07-30T05:21:29.855Z,1036.81
2022-07-30T05:22:06.077Z,1036.81
2022-07-30T05:22:18.370Z,1036.81
2022-07-30T05:22:42.728Z,1036.64
2022-07-30T05:23:05.676Z,1036.64
2022-07-30T05:23:38.742Z,1036.64
2022-07-30T05:24:10.100Z,1036.81
2022-07-30T05:24:37.290Z,1036.64
2022-07-30T05:25:00.003Z,1036.64
2022-07-30T05:25:30.584Z,1036.64
2022-07-30T05:26:01.273Z,1036.81
2022-07-30T05:26:18.183Z,1036.81
2022-07-30T05:26:38.821Z,1036.81
2022-07-30T05:27:05.237Z,1036.81
2022-07-30T05:27:40.353Z,1036.81
2022-07-30T05:28:09.202Z,1036.74
2022-07-30T05:28:36.089Z,1036.81
2022-07-30T05:28:58.345Z,1036.81
2022-07-30T05:29:29.222Z,1036.81
2022-07-30T05:30:03.408Z,1036.91
2022-07-30T05:30:18.178Z,1036.91
2022-07-30T05:30:39.143Z,1036.74
2022-07-30T05:31:08.091Z,1036.74